Alberta, Minnesota
Current Conditions -  °F | °C
As of 2:53 PM on Saturday 22 Nov 2014 (Local Time) from KMOX Reporting Station
Haze Haze  
Wind Chill: 22°   Ceiling: 100
Heat Index: 34°   Visibility: 1mi
Dew Point: 32°   Wind: 23mph
Humidity: 93%   Direction: 130°SE
Pressure: 29.51"   Gusts: NA
Location:  45.57°N, 96.05°W
Report Text: KMOX 222053Z AUTO 13020KT 1SM BR BKN001 01/00 A2951 RMK AO2
Loading
Personal Weather Stations






























Interactive Weather Map New forecast layout! Learn more

10-Day Weather Forecast

Advertisements
Track Severe Weather on mobile